Terminal Aerodrome Forecast
Issued by NWS Charleston, WV

Current Version | Previous Version | Graphics & Text | Print | Product List | Glossary On
Versions: 1 2 3 4 5 6 7 8 9 10 11 12 13 14 15 16 17 18 19 20 21 22 23 24
047
FTUS41 KRLX 241742
TAFCRW
TAF
KCRW 241742Z 2418/2518 15006KT 6SM -RA BKN030 BKN080 BKN120
     FM241900 14009KT 4SM SHRA VCTS BKN040CB
     FM242000 14010G17KT 2SM TSRA BKN040CB
     FM242100 15011G18KT 5SM SHRA VCTS OVC040CB
     FM250000 15011G17KT P6SM OVC026
     FM250600 20007KT P6SM OVC016
     FM251600 21009KT P6SM BKN027=

USA.gov is the U.S. government's official web portal to all federal, state and local government web resources and services.